createdAt,value
2018-06-12T00:00:50.621Z,1005.88
2018-06-12T00:01:51.120Z,1005.90
2018-06-12T00:02:51.084Z,1005.89
2018-06-12T00:03:50.600Z,1005.92
2018-06-12T00:04:51.126Z,1005.91
2018-06-12T00:05:51.033Z,1005.93
2018-06-12T00:06:50.600Z,1005.93
2018-06-12T00:07:51.100Z,1005.85
2018-06-12T00:08:50.901Z,1005.89
2018-06-12T00:09:50.605Z,1005.90
2018-06-12T00:10:50.887Z,1005.90
2018-06-12T00:11:51.105Z,1005.90
2018-06-12T00:12:50.606Z,1005.86
2018-06-12T00:13:51.108Z,1005.83
2018-06-12T00:14:51.126Z,1005.86
2018-06-12T00:15:50.079Z,1005.83
2018-06-12T00:16:53.075Z,1005.84
2018-06-12T00:17:50.339Z,1005.84
2018-06-12T00:18:50.322Z,1005.82
2018-06-12T00:19:50.901Z,1005.82
2018-06-12T00:20:50.856Z,1005.85
2018-06-12T00:21:50.125Z,1005.83
2018-06-12T00:22:50.874Z,1005.81
2018-06-12T00:23:50.825Z,1005.80
2018-06-12T00:24:49.956Z,1005.79
2018-06-12T00:25:50.750Z,1005.79
2018-06-12T00:26:50.901Z,1005.81
2018-06-12T00:27:50.077Z,1005.77
2018-06-12T00:28:52.722Z,1005.82
2018-06-12T00:29:50.815Z,1005.80
2018-06-12T00:30:50.054Z,1005.76
2018-06-12T00:31:50.873Z,1005.77
2018-06-12T00:32:50.839Z,1005.71
2018-06-12T00:33:50.933Z,1005.68
2018-06-12T00:34:56.842Z,1005.67
2018-06-12T00:35:50.900Z,1005.62
2018-06-12T00:36:50.935Z,1005.63
2018-06-12T00:37:50.412Z,1005.63
2018-06-12T00:38:50.921Z,1005.64
2018-06-12T00:39:50.969Z,1005.61
2018-06-12T00:40:50.947Z,1005.62
2018-06-12T00:41:50.394Z,1005.66
2018-06-12T00:42:50.933Z,1005.62
2018-06-12T00:43:50.877Z,1005.61
2018-06-12T00:44:50.939Z,1005.63
2018-06-12T00:45:51.093Z,1005.60
2018-06-12T00:46:50.398Z,1005.66
2018-06-12T00:47:50.778Z,1005.65
2018-06-12T00:48:51.013Z,1005.69
2018-06-12T00:49:50.910Z,1005.71
2018-06-12T00:50:50.874Z,1005.73
2018-06-12T00:51:50.872Z,1005.76
2018-06-12T00:52:50.844Z,1005.71
2018-06-12T00:53:50.910Z,1005.76
2018-06-12T00:54:50.975Z,1005.73
2018-06-12T00:55:50.943Z,1005.77
2018-06-12T00:56:50.940Z,1005.80
2018-06-12T00:57:50.834Z,1005.83
2018-06-12T00:58:50.921Z,1005.84
2018-06-12T00:59:50.968Z,1005.86
2018-06-12T01:00:50.922Z,1005.84
2018-06-12T01:01:50.880Z,1005.88
2018-06-12T01:02:50.856Z,1005.88
2018-06-12T01:03:51.090Z,1005.84
2018-06-12T01:04:50.374Z,1005.83
2018-06-12T01:05:50.922Z,1005.75
2018-06-12T01:06:50.925Z,1005.80
2018-06-12T01:07:50.944Z,1005.83
2018-06-12T01:08:50.926Z,1005.83
2018-06-12T01:09:52.845Z,1005.89
2018-06-12T01:10:50.940Z,1005.82
2018-06-12T01:11:50.900Z,1005.87
2018-06-12T01:12:50.925Z,1005.93
2018-06-12T01:13:50.983Z,1005.92
2018-06-12T01:14:50.855Z,1005.91
2018-06-12T01:15:50.893Z,1005.93
2018-06-12T01:16:53.144Z,1005.93
2018-06-12T01:17:50.282Z,1005.94
2018-06-12T01:18:50.945Z,1005.98
2018-06-12T01:19:50.886Z,1005.99
2018-06-12T01:20:50.913Z,1006.03
2018-06-12T01:21:50.878Z,1005.98
2018-06-12T01:22:50.838Z,1006.02
2018-06-12T01:23:50.956Z,1006.03
2018-06-12T01:24:50.895Z,1006.04
2018-06-12T01:25:50.352Z,1006.02
2018-06-12T01:26:50.994Z,1006.08
2018-06-12T01:27:50.956Z,1006.04
2018-06-12T01:28:50.448Z,1006.03
2018-06-12T01:29:50.969Z,1006.01
2018-06-12T01:30:50.924Z,1006.03
2018-06-12T01:31:50.955Z,1006.04
2018-06-12T01:32:51.106Z,1006.06
2018-06-12T01:33:50.969Z,1006.08
2018-06-12T01:34:50.873Z,1006.00
2018-06-12T01:35:50.948Z,1006.06
2018-06-12T01:36:50.910Z,1005.99
2018-06-12T01:37:50.918Z,1006.04
2018-06-12T01:38:50.946Z,1006.04
2018-06-12T01:39:50.894Z,1006.06
2018-06-12T01:40:52.663Z,1006.09
2018-06-12T01:41:50.864Z,1006.04
2018-06-12T01:42:50.955Z,1006.05
2018-06-12T01:43:50.831Z,1006.06
2018-06-12T01:44:50.904Z,1006.08
2018-06-12T01:45:50.911Z,1006.05
2018-06-12T01:46:50.865Z,1006.04
2018-06-12T01:47:50.883Z,1006.06
2018-06-12T01:48:50.401Z,1006.06
2018-06-12T01:49:50.880Z,1006.04
2018-06-12T01:50:50.907Z,1006.05
2018-06-12T01:51:50.904Z,1006.01
2018-06-12T01:52:50.340Z,1006.00
2018-06-12T01:53:52.631Z,1005.97
2018-06-12T01:54:50.482Z,1006.00
2018-06-12T01:55:50.416Z,1006.01
2018-06-12T01:56:50.416Z,1006.06
2018-06-12T01:57:50.925Z,1006.03
2018-06-12T01:58:50.483Z,1006.03
2018-06-12T01:59:50.901Z,1006.02
2018-06-12T02:00:50.861Z,1005.96
2018-06-12T02:01:50.363Z,1006.00
2018-06-12T02:02:53.092Z,1005.97
2018-06-12T02:03:50.996Z,1005.96
2018-06-12T02:04:50.522Z,1005.98
2018-06-12T02:05:50.941Z,1006.02
2018-06-12T02:06:50.929Z,1006.02
2018-06-12T02:07:50.357Z,1006.01
2018-06-12T02:08:50.979Z,1006.01
2018-06-12T02:09:50.664Z,1005.98
2018-06-12T02:10:50.923Z,1006.06
2018-06-12T02:11:51.141Z,1006.03
2018-06-12T02:12:51.144Z,1006.08
2018-06-12T02:13:50.661Z,1006.09
2018-06-12T02:14:52.730Z,1006.12
2018-06-12T02:15:51.146Z,1006.14
2018-06-12T02:16:50.624Z,1006.11
2018-06-12T02:17:51.117Z,1006.11
2018-06-12T02:18:51.006Z,1006.13
2018-06-12T02:19:50.697Z,1006.12
2018-06-12T02:20:51.172Z,1006.12
2018-06-12T02:21:50.632Z,1006.11
2018-06-12T02:22:50.643Z,1006.12
2018-06-12T02:23:51.124Z,1006.09
2018-06-12T02:24:51.182Z,1006.21
2018-06-12T02:25:50.656Z,1006.25
2018-06-12T02:26:50.980Z,1006.23
2018-06-12T02:27:50.988Z,1006.26
2018-06-12T02:28:50.355Z,1006.23
2018-06-12T02:29:50.887Z,1006.17
2018-06-12T02:30:50.623Z,1006.22
2018-06-12T02:31:50.689Z,1006.20
2018-06-12T02:32:50.896Z,1006.22
2018-06-12T02:33:50.896Z,1006.18
2018-06-12T02:34:50.351Z,1006.17
2018-06-12T02:35:51.163Z,1006.13
2018-06-12T02:36:50.826Z,1006.13
2018-06-12T02:37:50.631Z,1006.11
2018-06-12T02:38:50.868Z,1006.19
2018-06-12T02:39:50.918Z,1006.16
2018-06-12T02:40:50.331Z,1006.20
2018-06-12T02:41:50.355Z,1006.20
2018-06-12T02:42:50.900Z,1006.22
2018-06-12T02:43:50.900Z,1006.18
2018-06-12T02:44:50.895Z,1006.17
2018-06-12T02:45:51.160Z,1006.18
2018-06-12T02:46:51.148Z,1006.10
2018-06-12T02:47:51.158Z,1006.10
2018-06-12T02:48:51.146Z,1006.11
2018-06-12T02:49:51.151Z,1006.13
2018-06-12T02:50:51.147Z,1006.11
2018-06-12T02:51:51.227Z,1006.17
2018-06-12T02:52:51.133Z,1006.17
2018-06-12T02:53:51.150Z,1006.23
2018-06-12T02:54:51.148Z,1006.23
2018-06-12T02:55:51.132Z,1006.26
2018-06-12T02:56:51.230Z,1006.23
2018-06-12T02:57:50.628Z,1006.26
2018-06-12T02:58:52.352Z,1006.25
2018-06-12T02:59:53.174Z,1006.26
2018-06-12T03:00:50.906Z,1006.24
2018-06-12T03:01:50.920Z,1006.31
2018-06-12T03:02:50.905Z,1006.28
2018-06-12T03:03:50.892Z,1006.24
2018-06-12T03:04:52.201Z,1006.26
2018-06-12T03:05:50.974Z,1006.24
2018-06-12T03:06:50.910Z,1006.28
2018-06-12T03:07:50.886Z,1006.26
2018-06-12T03:08:50.897Z,1006.21
2018-06-12T03:09:52.669Z,1006.20
2018-06-12T03:10:50.933Z,1006.17
2018-06-12T03:11:50.908Z,1006.14
2018-06-12T03:12:51.169Z,1006.15
2018-06-12T03:13:51.190Z,1006.15
2018-06-12T03:14:51.157Z,1006.15
2018-06-12T03:15:51.157Z,1006.16
2018-06-12T03:16:51.233Z,1006.15
2018-06-12T03:17:52.715Z,1006.18
2018-06-12T03:18:51.162Z,1006.15
2018-06-12T03:19:51.152Z,1006.17
2018-06-12T03:20:51.161Z,1006.16
2018-06-12T03:21:51.211Z,1006.14
2018-06-12T03:22:51.007Z,1006.13
2018-06-12T03:23:50.910Z,1006.15
2018-06-12T03:24:52.712Z,1006.14
2018-06-12T03:25:50.909Z,1006.21
2018-06-12T03:26:50.912Z,1006.20
2018-06-12T03:27:51.190Z,1006.20
2018-06-12T03:28:50.695Z,1006.26
2018-06-12T03:29:50.892Z,1006.25
2018-06-12T03:30:50.914Z,1006.29
2018-06-12T03:31:50.902Z,1006.29
2018-06-12T03:32:50.913Z,1006.28
2018-06-12T03:33:50.908Z,1006.28
2018-06-12T03:34:50.357Z,1006.25
2018-06-12T03:35:51.165Z,1006.29
2018-06-12T03:36:51.160Z,1006.30
2018-06-12T03:37:51.172Z,1006.28
2018-06-12T03:38:51.198Z,1006.31
2018-06-12T03:39:50.934Z,1006.31
2018-06-12T03:40:50.926Z,1006.32
2018-06-12T03:41:50.902Z,1006.35
2018-06-12T03:42:50.923Z,1006.32
2018-06-12T03:43:50.924Z,1006.31
2018-06-12T03:44:50.866Z,1006.30
2018-06-12T03:45:50.866Z,1006.33
2018-06-12T03:46:50.954Z,1006.33
2018-06-12T03:47:51.446Z,1006.32
2018-06-12T03:48:50.668Z,1006.35
2018-06-12T03:49:50.386Z,1006.38
2018-06-12T03:50:51.189Z,1006.38
2018-06-12T03:51:51.245Z,1006.36
2018-06-12T03:52:51.945Z,1006.40
2018-06-12T03:53:50.923Z,1006.37
2018-06-12T03:54:50.964Z,1006.37
2018-06-12T03:55:50.970Z,1006.37
2018-06-12T03:56:51.137Z,1006.36
2018-06-12T03:57:51.181Z,1006.37
2018-06-12T03:58:52.748Z,1006.33
2018-06-12T03:59:51.150Z,1006.35
2018-06-12T04:00:51.159Z,1006.34
2018-06-12T04:01:51.196Z,1006.38
2018-06-12T04:02:51.162Z,1006.42
2018-06-12T04:03:51.201Z,1006.41
2018-06-12T04:04:50.895Z,1006.40
2018-06-12T04:05:50.907Z,1006.39
2018-06-12T04:06:50.916Z,1006.42
2018-06-12T04:07:50.909Z,1006.41
2018-06-12T04:08:50.890Z,1006.45
2018-06-12T04:09:50.899Z,1006.40
2018-06-12T04:10:50.921Z,1006.36
2018-06-12T04:11:50.897Z,1006.38
2018-06-12T04:12:50.927Z,1006.40
2018-06-12T04:13:50.901Z,1006.37
2018-06-12T04:14:50.455Z,1006.37
2018-06-12T04:15:51.217Z,1006.43
2018-06-12T04:16:50.269Z,1006.40
2018-06-12T04:17:51.192Z,1006.36
2018-06-12T04:18:50.968Z,1006.35
2018-06-12T04:19:50.880Z,1006.38
2018-06-12T04:20:51.228Z,1006.40
2018-06-12T04:21:50.936Z,1006.42
2018-06-12T04:22:50.655Z,1006.42
2018-06-12T04:23:50.957Z,1006.42
2018-06-12T04:24:51.172Z,1006.42
2018-06-12T04:25:50.956Z,1006.43
2018-06-12T04:26:50.967Z,1006.45
2018-06-12T04:27:51.062Z,1006.44
2018-06-12T04:28:51.193Z,1006.44
2018-06-12T04:29:51.161Z,1006.42
2018-06-12T04:30:51.166Z,1006.39
2018-06-12T04:31:51.073Z,1006.40
2018-06-12T04:32:51.255Z,1006.41
2018-06-12T04:33:50.265Z,1006.42
2018-06-12T04:34:50.863Z,1006.40
2018-06-12T04:35:50.910Z,1006.37
2018-06-12T04:36:51.160Z,1006.41
2018-06-12T04:37:51.184Z,1006.31
2018-06-12T04:38:51.264Z,1006.36
2018-06-12T04:39:50.964Z,1006.40
2018-06-12T04:40:50.975Z,1006.34
2018-06-12T04:41:50.977Z,1006.41
2018-06-12T04:42:50.924Z,1006.42
2018-06-12T04:43:50.333Z,1006.37
2018-06-12T04:44:51.240Z,1006.38
2018-06-12T04:45:50.710Z,1006.44
2018-06-12T04:46:52.752Z,1006.36
2018-06-12T04:47:50.313Z,1006.39
2018-06-12T04:48:50.988Z,1006.43
2018-06-12T04:49:50.788Z,1006.40
2018-06-12T04:50:50.903Z,1006.48
2018-06-12T04:51:51.021Z,1006.47
2018-06-12T04:52:50.703Z,1006.47
2018-06-12T04:53:50.940Z,1006.50
2018-06-12T04:54:50.661Z,1006.52
2018-06-12T04:55:50.670Z,1006.48
2018-06-12T04:56:50.665Z,1006.47
2018-06-12T04:57:50.661Z,1006.49
2018-06-12T04:58:50.699Z,1006.51
2018-06-12T04:59:50.708Z,1006.51
2018-06-12T05:00:50.667Z,1006.49
2018-06-12T05:01:51.026Z,1006.46
2018-06-12T05:02:50.707Z,1006.44
2018-06-12T05:03:51.027Z,1006.46
2018-06-12T05:04:50.714Z,1006.44
2018-06-12T05:05:50.911Z,1006.43
2018-06-12T05:06:50.666Z,1006.43
2018-06-12T05:07:50.691Z,1006.47
2018-06-12T05:08:52.872Z,1006.47
2018-06-12T05:09:51.016Z,1006.47
2018-06-12T05:10:50.606Z,1006.52
2018-06-12T05:11:50.710Z,1006.51
2018-06-12T05:12:51.200Z,1006.49
2018-06-12T05:13:51.009Z,1006.54
2018-06-12T05:14:51.031Z,1006.55
2018-06-12T05:15:50.939Z,1006.56
2018-06-12T05:16:51.002Z,1006.58
2018-06-12T05:17:50.332Z,1006.58
2018-06-12T05:18:50.677Z,1006.62
2018-06-12T05:19:50.711Z,1006.62
2018-06-12T05:20:50.984Z,1006.60
2018-06-12T05:21:50.941Z,1006.68
2018-06-12T05:22:50.730Z,1006.64
2018-06-12T05:23:50.722Z,1006.63
2018-06-12T05:24:50.756Z,1006.65
2018-06-12T05:25:50.776Z,1006.62
2018-06-12T05:26:50.556Z,1006.63
2018-06-12T05:27:50.967Z,1006.59
2018-06-12T05:28:51.015Z,1006.60
2018-06-12T05:29:50.706Z,1006.55
2018-06-12T05:30:52.770Z,1006.58
2018-06-12T05:31:50.723Z,1006.56
2018-06-12T05:32:51.004Z,1006.60
2018-06-12T05:33:50.939Z,1006.64
2018-06-12T05:34:50.713Z,1006.68
2018-06-12T05:35:50.761Z,1006.72
2018-06-12T05:36:52.679Z,1006.71
2018-06-12T05:37:56.733Z,1006.72
2018-06-12T05:38:51.040Z,1006.71
2018-06-12T05:39:51.004Z,1006.71
2018-06-12T05:40:50.703Z,1006.71
2018-06-12T05:41:50.940Z,1006.71
2018-06-12T05:42:52.535Z,1006.72
2018-06-12T05:43:50.284Z,1006.72
2018-06-12T05:44:50.774Z,1006.75
2018-06-12T05:45:50.553Z,1006.68
2018-06-12T05:46:51.053Z,1006.71
2018-06-12T05:47:50.681Z,1006.70
2018-06-12T05:48:50.701Z,1006.73
2018-06-12T05:49:50.690Z,1006.68
2018-06-12T05:50:50.687Z,1006.74
2018-06-12T05:51:50.687Z,1006.71
2018-06-12T05:52:51.236Z,1006.76
2018-06-12T05:53:52.780Z,1006.77
2018-06-12T05:54:52.703Z,1006.81
2018-06-12T05:55:51.350Z,1006.81
2018-06-12T05:56:50.740Z,1006.82
2018-06-12T05:57:51.177Z,1006.80
2018-06-12T05:58:50.735Z,1006.76
2018-06-12T05:59:51.060Z,1006.76
2018-06-12T06:00:51.228Z,1006.69
2018-06-12T06:01:50.682Z,1006.72
2018-06-12T06:02:50.962Z,1006.70
2018-06-12T06:03:50.953Z,1006.74
2018-06-12T06:04:51.012Z,1006.78
2018-06-12T06:05:50.743Z,1006.73
2018-06-12T06:06:53.143Z,1006.78
2018-06-12T06:07:50.750Z,1006.77
2018-06-12T06:08:50.710Z,1006.82
2018-06-12T06:09:51.202Z,1006.84
2018-06-12T06:10:51.175Z,1006.86
2018-06-12T06:11:50.730Z,1006.86
2018-06-12T06:12:50.617Z,1006.89
2018-06-12T06:13:52.644Z,1006.86
2018-06-12T06:14:50.709Z,1006.88
2018-06-12T06:15:50.695Z,1006.92
2018-06-12T06:16:51.155Z,1006.89
2018-06-12T06:17:51.246Z,1006.93
2018-06-12T06:18:50.737Z,1006.94
2018-06-12T06:19:50.696Z,1006.95
2018-06-12T06:20:49.330Z,1006.94
2018-06-12T06:21:49.343Z,1006.92
2018-06-12T06:22:49.256Z,1006.93
2018-06-12T06:23:52.104Z,1006.95
2018-06-12T06:24:50.286Z,1006.97
2018-06-12T06:25:49.284Z,1007.00
2018-06-12T06:26:50.269Z,1006.98
2018-06-12T06:27:50.197Z,1006.99
2018-06-12T06:28:50.256Z,1007.01
2018-06-12T06:29:50.316Z,1006.95
2018-06-12T06:30:49.943Z,1006.96
2018-06-12T06:31:50.242Z,1006.97
2018-06-12T06:32:50.239Z,1006.97
2018-06-12T06:33:50.226Z,1007.01
2018-06-12T06:34:50.214Z,1007.01
2018-06-12T06:35:50.207Z,1006.97
2018-06-12T06:36:51.245Z,1007.02
2018-06-12T06:37:50.443Z,1007.00
2018-06-12T06:38:50.276Z,1006.98
2018-06-12T06:39:50.190Z,1006.99
2018-06-12T06:40:49.955Z,1006.98
2018-06-12T06:41:50.252Z,1006.96
2018-06-12T06:42:50.274Z,1006.98
2018-06-12T06:43:50.058Z,1006.98
2018-06-12T06:44:50.017Z,1006.99
2018-06-12T06:45:50.239Z,1007.01
2018-06-12T06:46:50.720Z,1006.98
2018-06-12T06:48:56.749Z,1007.00
2018-06-12T06:49:50.309Z,1007.02
2018-06-12T06:50:50.736Z,1007.00
2018-06-12T06:51:50.718Z,1006.98
2018-06-12T06:52:50.715Z,1006.96
2018-06-12T06:53:50.742Z,1006.94
2018-06-12T06:54:50.716Z,1006.95
2018-06-12T06:55:51.009Z,1006.92
2018-06-12T06:56:51.255Z,1006.89
2018-06-12T06:57:50.753Z,1006.89
2018-06-12T06:58:54.739Z,1006.89
2018-06-12T06:59:50.746Z,1006.86
2018-06-12T07:00:50.323Z,1006.88
2018-06-12T07:01:50.703Z,1006.91
2018-06-12T07:02:50.662Z,1006.89
2018-06-12T07:03:50.705Z,1006.93
2018-06-12T07:04:50.705Z,1006.89
2018-06-12T07:05:50.702Z,1006.95
2018-06-12T07:06:51.216Z,1006.96
2018-06-12T07:07:50.817Z,1007.01
2018-06-12T07:08:51.291Z,1006.97
2018-06-12T07:09:52.199Z,1006.95
2018-06-12T07:10:51.016Z,1006.99
2018-06-12T07:13:36.366Z,1006.96
2018-06-12T07:14:36.421Z,1006.96
2018-06-12T07:16:30.521Z,1006.95
2018-06-12T07:18:44.399Z,1006.94
2018-06-12T07:21:34.849Z,1007.01
2018-06-12T07:22:37.191Z,1006.98
2018-06-12T07:24:30.189Z,1006.98
2018-06-12T07:25:29.752Z,1007.00
2018-06-12T07:27:46.923Z,1006.99
2018-06-12T07:29:50.297Z,1006.94
2018-06-12T07:32:05.016Z,1006.97
2018-06-12T07:33:05.050Z,1006.97
2018-06-12T07:34:58.614Z,1006.90
2018-06-12T07:35:59.628Z,1006.92
2018-06-12T07:37:53.451Z,1006.91
2018-06-12T07:38:53.418Z,1006.92
2018-06-12T07:40:50.045Z,1006.93
2018-06-12T07:42:04.252Z,1006.89
2018-06-12T07:42:49.990Z,1006.89
2018-06-12T07:43:49.828Z,1006.91
2018-06-12T07:44:50.024Z,1006.97
2018-06-12T07:45:53.684Z,1006.93
2018-06-12T07:47:06.000Z,1006.95
2018-06-12T07:47:50.497Z,1006.95
2018-06-12T07:48:50.047Z,1006.98
2018-06-12T07:49:56.461Z,1006.96
2018-06-12T07:50:50.049Z,1006.90
2018-06-12T07:51:50.457Z,1006.87
2018-06-12T07:52:55.785Z,1006.95
2018-06-12T07:53:50.084Z,1006.96
2018-06-12T07:54:57.494Z,1006.94
2018-06-12T07:57:36.549Z,1006.89
2018-06-12T07:58:39.571Z,1006.86
2018-06-12T08:00:30.470Z,1006.88
2018-06-12T08:02:56.375Z,1006.88
2018-06-12T08:03:57.796Z,1006.88
2018-06-12T08:06:07.861Z,1006.87
2018-06-12T08:07:09.044Z,1006.88
2018-06-12T08:09:02.412Z,1006.96
2018-06-12T08:10:03.340Z,1006.94
2018-06-12T08:11:56.657Z,1006.99
2018-06-12T08:12:56.388Z,1006.95
2018-06-12T08:16:48.667Z,1006.98
2018-06-12T08:17:48.840Z,1006.98
2018-06-12T08:20:05.053Z,1007.03
2018-06-12T08:21:38.050Z,1007.00
2018-06-12T08:22:38.270Z,1007.01
2018-06-12T08:24:33.202Z,1007.01
2018-06-12T08:25:32.378Z,1007.03
2018-06-12T08:27:29.106Z,1007.01
2018-06-12T08:28:30.877Z,1007.00
2018-06-12T08:31:01.920Z,1007.00
2018-06-12T08:32:02.972Z,1006.99
2018-06-12T08:33:56.826Z,1006.98
2018-06-12T08:36:11.346Z,1006.94
2018-06-12T08:37:12.080Z,1007.01
2018-06-12T08:39:05.505Z,1006.96
2018-06-12T08:41:32.096Z,1006.89
2018-06-12T08:42:32.100Z,1006.91
2018-06-12T08:46:00.902Z,1006.87
2018-06-12T08:48:17.458Z,1006.85
2018-06-12T08:49:18.123Z,1006.86
2018-06-12T08:50:18.934Z,1006.89
2018-06-12T08:51:19.459Z,1006.84
2018-06-12T08:52:17.599Z,1006.82
2018-06-12T08:53:16.630Z,1006.81
2018-06-12T08:54:17.552Z,1006.82
2018-06-12T08:55:17.084Z,1006.81
2018-06-12T08:56:17.116Z,1006.86
2018-06-12T08:57:16.637Z,1006.88
2018-06-12T08:58:17.421Z,1006.85
2018-06-12T08:59:52.634Z,1006.90
2018-06-12T09:02:00.748Z,1006.87
2018-06-12T09:02:58.511Z,1006.86
2018-06-12T09:04:53.231Z,1006.86
2018-06-12T09:05:53.142Z,1006.90
2018-06-12T09:07:49.268Z,1006.91
2018-06-12T09:10:00.655Z,1006.92
2018-06-12T09:11:00.186Z,1006.95
2018-06-12T09:12:57.689Z,1006.85
2018-06-12T09:13:57.261Z,1006.87
2018-06-12T09:15:50.433Z,1006.88
2018-06-12T09:18:04.924Z,1006.92
2018-06-12T09:19:05.222Z,1006.93
2018-06-12T09:21:07.419Z,1006.97
2018-06-12T09:22:05.243Z,1006.97
2018-06-12T09:23:03.519Z,1006.97
2018-06-12T09:24:04.960Z,1006.95
2018-06-12T09:27:19.154Z,1007.00
2018-06-12T09:27:51.093Z,1006.98
2018-06-12T09:29:46.362Z,1007.03
2018-06-12T09:30:49.316Z,1007.01
2018-06-12T09:32:40.084Z,1007.02
2018-06-12T09:33:41.028Z,1007.03
2018-06-12T09:35:33.966Z,1007.02
2018-06-12T09:36:35.889Z,1007.04
2018-06-12T09:38:28.419Z,1007.06
2018-06-12T09:39:28.902Z,1007.11
2018-06-12T09:41:25.056Z,1007.14
2018-06-12T09:42:25.915Z,1007.11
2018-06-12T09:43:24.675Z,1007.08
2018-06-12T09:44:27.361Z,1007.04
2018-06-12T09:45:25.055Z,1007.06
2018-06-12T09:46:26.582Z,1007.06
2018-06-12T09:47:25.590Z,1007.06
2018-06-12T09:48:25.263Z,1007.12
2018-06-12T09:49:25.499Z,1007.05
2018-06-12T09:50:42.549Z,1007.08
2018-06-12T09:51:25.235Z,1007.10
2018-06-12T09:52:25.855Z,1007.08
2018-06-12T09:53:45.968Z,1007.09
2018-06-12T09:54:45.912Z,1007.11
2018-06-12T09:55:25.336Z,1007.05
2018-06-12T09:56:25.559Z,1007.05
2018-06-12T09:57:25.551Z,1007.07
2018-06-12T09:58:26.045Z,1007.07
2018-06-12T09:59:31.994Z,1007.10
2018-06-12T10:00:25.885Z,1007.09
2018-06-12T10:01:25.098Z,1007.09
2018-06-12T10:02:25.876Z,1007.06
2018-06-12T10:03:25.612Z,1007.07
2018-06-12T10:04:25.647Z,1007.06
2018-06-12T10:05:25.072Z,1007.06
2018-06-12T10:06:25.508Z,1007.09
2018-06-12T10:07:40.744Z,1007.12
2018-06-12T10:08:26.537Z,1007.10
2018-06-12T10:09:25.501Z,1007.16
2018-06-12T10:10:25.117Z,1007.17
2018-06-12T10:11:25.609Z,1007.17
2018-06-12T10:12:25.334Z,1007.15
2018-06-12T10:13:25.583Z,1007.17
2018-06-12T10:14:25.613Z,1007.17
2018-06-12T10:15:26.053Z,1007.16
2018-06-12T10:16:25.115Z,1007.12
2018-06-12T10:17:26.888Z,1007.14
2018-06-12T10:18:25.601Z,1007.14
2018-06-12T10:19:25.449Z,1007.17
2018-06-12T10:20:25.543Z,1007.21
2018-06-12T10:21:25.919Z,1007.21
2018-06-12T10:22:25.590Z,1007.25
2018-06-12T10:23:32.091Z,1007.26
2018-06-12T10:24:25.053Z,1007.29
2018-06-12T10:25:32.083Z,1007.26
2018-06-12T10:26:25.560Z,1007.26
2018-06-12T10:27:25.498Z,1007.29
2018-06-12T10:28:24.826Z,1007.26
2018-06-12T10:29:27.201Z,1007.28
2018-06-12T10:30:24.814Z,1007.32
2018-06-12T10:31:25.024Z,1007.24
2018-06-12T10:32:25.615Z,1007.27
2018-06-12T10:33:25.586Z,1007.29
2018-06-12T10:34:23.775Z,1007.29
2018-06-12T10:35:25.605Z,1007.30
2018-06-12T10:36:25.116Z,1007.33
2018-06-12T10:37:25.218Z,1007.30
2018-06-12T10:38:25.863Z,1007.26
2018-06-12T10:39:25.092Z,1007.26
2018-06-12T10:40:25.160Z,1007.25
2018-06-12T10:41:26.074Z,1007.30
2018-06-12T10:42:25.630Z,1007.25
2018-06-12T10:43:25.025Z,1007.25
2018-06-12T10:44:30.958Z,1007.25
2018-06-12T10:45:25.969Z,1007.24
2018-06-12T10:46:25.626Z,1007.21
2018-06-12T10:47:26.714Z,1007.25
2018-06-12T10:48:26.080Z,1007.25
2018-06-12T10:49:25.412Z,1007.17
2018-06-12T10:50:25.585Z,1007.25
2018-06-12T10:51:25.626Z,1007.25
2018-06-12T10:52:25.110Z,1007.26
2018-06-12T10:53:25.534Z,1007.25
2018-06-12T10:54:25.533Z,1007.20
2018-06-12T10:55:25.031Z,1007.21
2018-06-12T10:56:25.612Z,1007.23
2018-06-12T10:57:25.885Z,1007.25
2018-06-12T10:58:25.482Z,1007.21
2018-06-12T10:59:25.888Z,1007.17
2018-06-12T11:00:25.600Z,1007.21
2018-06-12T11:01:25.029Z,1007.19
2018-06-12T11:02:25.582Z,1007.19
2018-06-12T11:03:28.072Z,1007.16
2018-06-12T11:04:25.393Z,1007.16
2018-06-12T11:05:26.949Z,1007.15
2018-06-12T11:06:25.450Z,1007.11
2018-06-12T11:07:25.040Z,1007.09
2018-06-12T11:08:25.539Z,1007.11
2018-06-12T11:09:25.617Z,1007.13
2018-06-12T11:10:25.767Z,1007.11
2018-06-12T11:11:27.535Z,1007.09
2018-06-12T11:12:25.927Z,1007.10
2018-06-12T11:13:25.946Z,1007.13
2018-06-12T11:14:25.602Z,1007.09
2018-06-12T11:15:25.610Z,1007.08
2018-06-12T11:16:25.037Z,1007.16
2018-06-12T11:17:25.542Z,1007.10
2018-06-12T11:18:25.617Z,1007.15
2018-06-12T11:19:25.588Z,1007.11
2018-06-12T11:20:25.544Z,1007.11
2018-06-12T11:21:25.610Z,1007.21
2018-06-12T11:22:26.067Z,1007.10
2018-06-12T11:23:25.490Z,1007.09
2018-06-12T11:24:25.390Z,1007.11
2018-06-12T11:25:25.634Z,1007.11
2018-06-12T11:26:26.878Z,1007.07
2018-06-12T11:27:31.425Z,1007.04
2018-06-12T11:28:25.478Z,1007.06
2018-06-12T11:29:25.631Z,1007.01
2018-06-12T11:30:26.848Z,1007.06
2018-06-12T11:31:27.648Z,1007.04
2018-06-12T11:32:25.420Z,1007.01
2018-06-12T11:33:27.883Z,1007.01
2018-06-12T11:34:25.043Z,1007.00
2018-06-12T11:35:25.550Z,1006.95
2018-06-12T11:36:25.906Z,1006.96
2018-06-12T11:37:25.622Z,1007.02
2018-06-12T11:38:25.060Z,1006.99
2018-06-12T11:39:25.905Z,1007.02
2018-06-12T11:40:27.094Z,1006.97
2018-06-12T11:41:25.627Z,1006.95
2018-06-12T11:42:25.954Z,1006.97
2018-06-12T11:43:25.048Z,1007.03
2018-06-12T11:44:25.440Z,1006.99
2018-06-12T11:45:25.906Z,1007.01
2018-06-12T11:46:24.999Z,1006.97
2018-06-12T11:47:25.616Z,1006.96
2018-06-12T11:48:26.057Z,1006.96
2018-06-12T11:49:25.956Z,1006.93
2018-06-12T11:50:25.598Z,1006.93
2018-06-12T11:51:25.975Z,1006.96
2018-06-12T11:52:25.051Z,1006.94
2018-06-12T11:53:25.590Z,1006.94
2018-06-12T11:54:25.923Z,1006.97
2018-06-12T11:55:25.515Z,1006.96
2018-06-12T11:56:25.116Z,1006.97
2018-06-12T11:57:27.683Z,1006.98
2018-06-12T11:59:25.111Z,1006.96
2018-06-12T12:00:25.564Z,1007.01
2018-06-12T12:01:25.565Z,1006.98
2018-06-12T12:02:25.639Z,1006.99
2018-06-12T12:03:27.392Z,1006.99
2018-06-12T12:04:25.302Z,1006.95
2018-06-12T12:05:24.148Z,1006.94
2018-06-12T12:06:25.560Z,1006.93
2018-06-12T12:07:25.108Z,1006.92
2018-06-12T12:08:25.534Z,1006.94
2018-06-12T12:09:28.452Z,1006.98
2018-06-12T12:10:25.444Z,1006.99
2018-06-12T12:11:25.644Z,1006.99
2018-06-12T12:12:26.028Z,1006.98
2018-06-12T12:13:25.918Z,1007.01
2018-06-12T12:14:25.581Z,1007.03
2018-06-12T12:15:25.917Z,1007.03
2018-06-12T12:16:26.064Z,1007.02
2018-06-12T12:17:25.574Z,1007.01
2018-06-12T12:18:26.665Z,1007.06
2018-06-12T12:19:25.916Z,1007.10
2018-06-12T12:20:25.614Z,1007.10
2018-06-12T12:21:25.635Z,1007.13
2018-06-12T12:22:26.341Z,1007.12
2018-06-12T12:23:25.591Z,1007.14
2018-06-12T12:24:27.637Z,1007.14
2018-06-12T12:25:28.074Z,1007.11
2018-06-12T12:26:26.141Z,1007.13
2018-06-12T12:27:26.082Z,1007.12
2018-06-12T12:28:24.275Z,1007.11
2018-06-12T12:29:26.111Z,1007.15
2018-06-12T12:30:26.443Z,1007.12
2018-06-12T12:31:25.572Z,1007.14
2018-06-12T12:32:26.084Z,1007.16
2018-06-12T12:33:25.175Z,1007.13
2018-06-12T12:34:25.904Z,1007.14
2018-06-12T12:35:27.100Z,1007.15
2018-06-12T12:36:26.186Z,1007.15
2018-06-12T12:37:26.624Z,1007.15
2018-06-12T12:38:26.023Z,1007.17
2018-06-12T12:39:26.162Z,1007.14
2018-06-12T12:40:25.630Z,1007.13
2018-06-12T12:41:25.548Z,1007.13
2018-06-12T12:42:25.614Z,1007.05
2018-06-12T12:43:25.599Z,1007.07
2018-06-12T12:44:26.116Z,1007.05
2018-06-12T12:45:26.202Z,1006.95
2018-06-12T12:46:27.629Z,1007.05
2018-06-12T12:47:28.123Z,1007.03
2018-06-12T12:48:28.069Z,1007.00
2018-06-12T12:49:27.650Z,1007.04
2018-06-12T12:50:46.146Z,1007.00
2018-06-12T12:51:27.649Z,1007.02
2018-06-12T12:52:28.116Z,1007.01
2018-06-12T12:53:33.649Z,1006.97
2018-06-12T12:54:25.586Z,1006.99
2018-06-12T12:55:48.010Z,1007.02
2018-06-12T12:56:27.231Z,1006.98
2018-06-12T12:57:25.631Z,1007.00
2018-06-12T12:58:26.186Z,1007.02
2018-06-12T12:59:25.647Z,1006.98